KCFV/CFV METAR and TAF weather

Enter ICAO airport designator
Station Type Date Time Source
KCFV METAR 2019/02/21 11:52 UTC NOAA

KCFV 211152Z AUTO 04004KT 4SM BR CLR M01/M02 A3009 RMK AO2 SLP197 T10111022 11006 21022 53006


Station Type Date Time Source
KCFV Decoded METAR 2019/02/21 11:52 UTC NOAA

COFFEYVILLE MUNICIPAL AIRPORT , KS, United States (KCFV) 37-05N 95-34W 225M
Feb 21, 2019 - 06:52 AM EST / 2019.02.21 1152 UTC
Wind: from the NE (040 degrees) at 5 MPH (4 KT):0
Visibility: 4 mile(s):0
Sky conditions: clear
Weather: mist
Temperature: 30.0 F (-1.1 C)
Windchill: 24 F (-4 C):1
Dew Point: 28.0 F (-2.2 C)
Relative Humidity: 92%
Pressure (altimeter): 30.09 in. Hg (1018 hPa)
Pressure tendency: 0.02 inches (0.6 hPa) higher than three hours ago
ob: KCFV 211152Z AUTO 04004KT 4SM BR CLR M01/M02 A3009 RMK AO2 SLP197 T10111022 11006 21022 53006
cycle: 12

Station Type Date Time Source
KCFV TAF UTC NOAA

Error!


Example: see airport list